KSIK/SIK METAR and TAF weather

Enter ICAO airport designator
Station Type Date Time Source
KSIK METAR 2019/06/27 10:35 UTC NOAA

KSIK 271035Z AUTO 00000KT 10SM CLR 21/20 A3017 RMK AO2 LTG DSNT S THRU NW


Station Type Date Time Source
KSIK Decoded METAR 2019/06/27 10:35 UTC NOAA

Station name not available
Jun 27, 2019 - 06:35 AM EDT / 2019.06.27 1035 UTC
Wind: Calm:0
Visibility: 10 mile(s):0
Sky conditions: clear
Weather: Lightning observed
Temperature: 69 F (21 C)
Dew Point: 68 F (20 C)
Relative Humidity: 94%
Pressure (altimeter): 30.17 in. Hg (1021 hPa)
ob: KSIK 271035Z AUTO 00000KT 10SM CLR 21/20 A3017 RMK AO2 LTG DSNT S THRU NW
cycle: 10

Station Type Date Time Source
KSIK TAF UTC NOAA

Error!

Example: see airport list